createdAt,value
2018-12-19T00:01:15.337Z,15.43
2018-12-19T00:02:52.819Z,16.50
2018-12-19T00:04:29.796Z,16.97
2018-12-19T00:06:07.034Z,18.20
2018-12-19T00:07:42.841Z,18.10
2018-12-19T00:09:17.918Z,17.07
2018-12-19T00:10:54.188Z,16.20
2018-12-19T00:12:29.674Z,17.10
2018-12-19T00:14:05.708Z,16.07
2018-12-19T00:15:40.871Z,15.87
2018-12-19T00:17:17.186Z,16.93
2018-12-19T00:18:54.845Z,16.77
2018-12-19T00:20:32.214Z,16.03
2018-12-19T00:22:08.224Z,16.67
2018-12-19T00:23:43.192Z,18.07
2018-12-19T00:25:19.299Z,16.17
2018-12-19T00:26:56.271Z,17.47
2018-12-19T00:28:33.244Z,17.67
2018-12-19T00:30:11.714Z,15.40
2018-12-19T00:31:48.977Z,17.83
2018-12-19T00:33:26.114Z,17.33
2018-12-19T00:35:03.607Z,17.50
2018-12-19T00:36:40.033Z,16.83
2018-12-19T00:38:15.330Z,17.73
2018-12-19T00:39:50.381Z,18.33
2018-12-19T00:41:25.516Z,17.13
2018-12-19T00:43:00.718Z,16.47
2018-12-19T00:44:35.689Z,17.10
2018-12-19T00:46:10.724Z,17.40
2018-12-19T00:47:46.218Z,18.47
2018-12-19T00:49:21.398Z,18.43
2018-12-19T00:50:56.447Z,18.63
2018-12-19T00:52:31.626Z,17.80
2018-12-19T00:54:06.734Z,17.60
2018-12-19T00:55:41.864Z,17.83
2018-12-19T00:57:18.707Z,17.73
2018-12-19T00:58:55.677Z,18.73
2018-12-19T01:00:30.753Z,17.80
2018-12-19T01:02:06.856Z,17.97
2018-12-19T01:03:42.101Z,17.17
2018-12-19T01:05:17.434Z,17.90
2018-12-19T01:06:52.572Z,19.00
2018-12-19T01:08:28.566Z,17.60
2018-12-19T01:10:04.154Z,16.63
2018-12-19T01:11:40.552Z,18.33
2018-12-19T01:13:16.728Z,18.53
2018-12-19T01:14:52.125Z,18.77
2018-12-19T01:16:27.196Z,18.23
2018-12-19T01:18:02.296Z,19.00
2018-12-19T01:19:37.570Z,19.20
2018-12-19T01:21:13.111Z,17.80
2018-12-19T01:22:48.289Z,17.63
2018-12-19T01:24:23.831Z,18.63
2018-12-19T01:25:58.912Z,19.37
2018-12-19T01:27:33.955Z,18.93
2018-12-19T01:29:09.447Z,19.87
2018-12-19T01:30:44.547Z,19.33
2018-12-19T01:32:21.445Z,18.53
2018-12-19T01:33:57.552Z,18.73
2018-12-19T01:35:32.660Z,19.63
2018-12-19T01:37:07.729Z,19.03
2018-12-19T01:38:43.171Z,20.33
2018-12-19T01:40:19.837Z,20.43
2018-12-19T01:41:55.236Z,18.40
2018-12-19T01:43:30.499Z,18.83
2018-12-19T01:45:06.009Z,19.10
2018-12-19T01:46:42.182Z,20.53
2018-12-19T01:48:17.193Z,21.80
2018-12-19T01:49:53.053Z,19.83
2018-12-19T01:51:28.201Z,19.37
2018-12-19T01:53:03.200Z,20.57
2018-12-19T01:54:38.716Z,19.30
2018-12-19T01:56:13.669Z,19.93
2018-12-19T01:57:50.196Z,19.30
2018-12-19T01:59:25.133Z,19.00
2018-12-19T02:01:00.017Z,18.83
2018-12-19T02:02:34.985Z,18.87
2018-12-19T02:04:13.263Z,17.43
2018-12-19T02:05:48.564Z,16.90
2018-12-19T02:07:23.913Z,18.33
2018-12-19T02:08:58.866Z,17.70
2018-12-19T02:10:35.163Z,17.83
2018-12-19T02:12:10.156Z,17.27
2018-12-19T02:13:45.388Z,17.13
2018-12-19T02:15:20.423Z,16.80
2018-12-19T02:16:55.540Z,16.33
2018-12-19T02:18:31.685Z,17.23
2018-12-19T02:20:06.782Z,16.97
2018-12-19T02:21:43.028Z,16.63
2018-12-19T02:23:18.182Z,16.40
2018-12-19T02:24:53.583Z,15.53
2018-12-19T02:26:30.432Z,15.40
2018-12-19T02:28:05.383Z,14.87
2018-12-19T02:29:40.731Z,16.20
2018-12-19T02:31:16.979Z,13.43
2018-12-19T02:32:52.045Z,16.60
2018-12-19T02:34:27.079Z,16.27
2018-12-19T02:36:02.537Z,15.60
2018-12-19T02:37:37.449Z,13.40
2018-12-19T02:39:12.455Z,15.13
2018-12-19T02:40:47.706Z,14.33
2018-12-19T02:42:25.344Z,14.33
2018-12-19T02:44:00.363Z,15.37
2018-12-19T02:45:37.134Z,13.80
2018-12-19T02:47:12.466Z,11.90
2018-12-19T02:48:48.608Z,12.67
2018-12-19T02:50:23.961Z,14.00
2018-12-19T02:52:00.248Z,13.93
2018-12-19T02:53:35.159Z,12.83
2018-12-19T02:55:10.703Z,13.13
2018-12-19T02:56:46.824Z,12.03
2018-12-19T02:58:21.923Z,12.40
2018-12-19T02:59:57.324Z,12.43
2018-12-19T03:01:33.751Z,13.93
2018-12-19T03:03:08.966Z,13.20
2018-12-19T03:04:44.016Z,13.03
2018-12-19T03:06:19.348Z,12.83
2018-12-19T03:07:54.523Z,12.73
2018-12-19T03:09:31.057Z,13.67
2018-12-19T03:11:06.651Z,13.23
2018-12-19T03:12:41.716Z,11.87
2018-12-19T03:14:16.787Z,11.33
2018-12-19T03:15:52.060Z,10.87
2018-12-19T03:17:27.331Z,13.47
2018-12-19T03:19:02.280Z,11.30
2018-12-19T03:20:37.203Z,12.50
2018-12-19T03:22:14.276Z,12.27
2018-12-19T03:23:49.234Z,11.90
2018-12-19T03:25:24.235Z,11.17
2018-12-19T03:27:00.423Z,10.60
2018-12-19T03:28:36.614Z,10.97
2018-12-19T03:30:11.557Z,10.17
2018-12-19T03:31:46.657Z,9.97
2018-12-19T03:33:22.482Z,11.27
2018-12-19T03:34:57.560Z,11.00
2018-12-19T03:36:33.818Z,11.33
2018-12-19T03:38:10.741Z,10.43
2018-12-19T03:39:50.250Z,12.00
2018-12-19T03:41:23.330Z,12.47
2018-12-19T03:42:58.255Z,12.10
2018-12-19T03:44:33.245Z,10.90
2018-12-19T03:46:08.737Z,11.93
2018-12-19T03:47:43.863Z,12.53
2018-12-19T03:49:20.020Z,12.20
2018-12-19T03:50:55.014Z,11.50
2018-12-19T03:52:30.010Z,11.40
2018-12-19T03:54:05.497Z,11.27
2018-12-19T03:55:40.767Z,12.37
2018-12-19T03:57:16.348Z,12.27
2018-12-19T03:58:52.117Z,12.40
2018-12-19T04:00:27.077Z,12.20
2018-12-19T04:02:02.380Z,11.87
2018-12-19T04:03:37.815Z,12.40
2018-12-19T04:05:12.891Z,12.77
2018-12-19T04:06:48.072Z,13.93
2018-12-19T04:08:25.326Z,11.63
2018-12-19T04:10:00.575Z,11.97
2018-12-19T04:11:36.889Z,13.13
2018-12-19T04:13:13.169Z,11.97
2018-12-19T04:14:48.785Z,12.77
2018-12-19T04:16:23.929Z,11.70
2018-12-19T04:17:58.902Z,12.57
2018-12-19T04:19:33.862Z,13.23
2018-12-19T04:21:11.024Z,12.33
2018-12-19T04:22:46.045Z,13.67
2018-12-19T04:24:21.177Z,12.53
2018-12-19T04:25:56.120Z,12.77
2018-12-19T04:27:32.656Z,12.83
2018-12-19T04:29:08.479Z,13.07
2018-12-19T04:30:43.741Z,14.07
2018-12-19T04:32:19.021Z,14.30
2018-12-19T04:33:54.060Z,12.57
2018-12-19T04:35:30.304Z,12.33
2018-12-19T04:37:05.232Z,12.70
2018-12-19T04:38:40.494Z,13.40
2018-12-19T04:40:15.741Z,12.73
2018-12-19T04:41:52.874Z,12.60
2018-12-19T04:43:27.901Z,14.53
2018-12-19T04:45:08.949Z,13.63
2018-12-19T04:46:44.345Z,11.47
2018-12-19T04:48:20.372Z,11.53
2018-12-19T04:49:55.363Z,12.60
2018-12-19T04:51:31.538Z,12.60
2018-12-19T04:53:06.513Z,12.10
2018-12-19T04:54:41.521Z,12.57
2018-12-19T04:56:16.512Z,12.67
2018-12-19T04:57:51.978Z,12.00
2018-12-19T04:59:27.228Z,12.67
2018-12-19T05:01:03.114Z,12.70
2018-12-19T05:02:39.402Z,12.17
2018-12-19T05:04:14.345Z,11.73
2018-12-19T05:05:49.332Z,11.87
2018-12-19T05:07:24.839Z,11.00
2018-12-19T05:08:59.759Z,10.63
2018-12-19T05:10:35.188Z,10.73
2018-12-19T05:12:10.104Z,11.60
2018-12-19T05:13:45.010Z,11.30
2018-12-19T05:15:20.032Z,11.90
2018-12-19T05:16:55.007Z,10.97
2018-12-19T05:18:29.975Z,11.40
2018-12-19T05:20:11.044Z,11.13
2018-12-19T05:21:46.412Z,10.17
2018-12-19T05:23:21.324Z,9.67
2018-12-19T05:24:56.456Z,8.67
2018-12-19T05:26:31.619Z,10.57
2018-12-19T05:28:06.591Z,9.07
2018-12-19T05:29:41.863Z,9.23
2018-12-19T05:31:17.159Z,10.73
2018-12-19T05:32:52.550Z,9.80
2018-12-19T05:34:27.645Z,9.00
2018-12-19T05:36:03.085Z,9.97
2018-12-19T05:37:39.114Z,8.67
2018-12-19T05:39:14.239Z,8.33
2018-12-19T05:40:49.975Z,8.53
2018-12-19T05:42:27.107Z,8.87
2018-12-19T05:44:02.086Z,10.13
2018-12-19T05:45:36.988Z,9.07
2018-12-19T05:47:12.253Z,9.23
2018-12-19T05:48:47.510Z,8.87
2018-12-19T05:50:25.528Z,9.40
2018-12-19T05:52:00.661Z,9.20
2018-12-19T05:53:35.585Z,9.47
2018-12-19T05:55:10.980Z,12.37
2018-12-19T05:56:45.971Z,9.63
2018-12-19T05:58:21.281Z,9.10
2018-12-19T05:59:57.407Z,8.77
2018-12-19T06:01:32.414Z,9.27
2018-12-19T06:03:10.143Z,8.07
2018-12-19T06:04:45.855Z,8.30
2018-12-19T06:06:20.811Z,8.83
2018-12-19T06:07:56.535Z,7.90
2018-12-19T06:09:31.658Z,8.07
2018-12-19T06:11:07.477Z,7.73
2018-12-19T06:12:42.670Z,7.20
2018-12-19T06:14:17.772Z,8.77
2018-12-19T06:15:53.003Z,7.87
2018-12-19T06:17:28.131Z,7.93
2018-12-19T06:19:03.187Z,7.80
2018-12-19T06:20:39.091Z,6.87
2018-12-19T06:22:14.334Z,7.77
2018-12-19T06:23:49.246Z,7.50
2018-12-19T06:25:25.873Z,6.50
2018-12-19T06:27:02.252Z,8.10
2018-12-19T06:28:37.275Z,7.73
2018-12-19T06:30:12.551Z,7.17
2018-12-19T06:31:47.412Z,7.13
2018-12-19T06:33:24.037Z,7.73
2018-12-19T06:34:58.970Z,6.87
2018-12-19T06:36:33.876Z,7.57
2018-12-19T06:38:08.923Z,6.50
2018-12-19T06:39:43.913Z,6.17
2018-12-19T06:41:19.081Z,6.60
2018-12-19T06:42:54.200Z,6.20
2018-12-19T06:44:29.374Z,5.87
2018-12-19T06:46:05.682Z,6.30
2018-12-19T06:47:40.770Z,5.90
2018-12-19T06:49:16.144Z,7.53
2018-12-19T06:50:51.655Z,6.40
2018-12-19T06:52:26.813Z,5.63
2018-12-19T06:54:01.908Z,6.27
2018-12-19T06:55:36.973Z,5.40
2018-12-19T06:57:12.516Z,5.40
2018-12-19T06:58:47.984Z,5.63
2018-12-19T07:00:23.011Z,5.00
2018-12-19T07:01:57.916Z,6.60
2018-12-19T07:03:34.328Z,5.27
2018-12-19T07:05:09.205Z,6.13
2018-12-19T07:06:44.204Z,6.13
2018-12-19T07:08:19.899Z,5.80
2018-12-19T07:09:54.877Z,5.83
2018-12-19T07:11:31.257Z,6.50
2018-12-19T07:13:06.425Z,6.90
2018-12-19T07:14:41.788Z,6.07
2018-12-19T07:16:17.383Z,5.13
2018-12-19T07:17:52.276Z,5.40
2018-12-19T07:19:27.147Z,9.13
2018-12-19T07:21:03.751Z,6.67
2018-12-19T07:22:38.924Z,5.83
2018-12-19T07:24:14.031Z,6.03
2018-12-19T07:25:49.078Z,5.93
2018-12-19T07:27:24.748Z,5.80
2018-12-19T07:29:00.478Z,5.37
2018-12-19T07:30:36.047Z,6.90
2018-12-19T07:32:11.321Z,5.10
2018-12-19T07:33:46.268Z,5.73
2018-12-19T07:35:21.181Z,6.30
2018-12-19T07:36:57.501Z,6.93
2018-12-19T07:38:32.873Z,7.60
2018-12-19T07:40:08.097Z,5.97
2018-12-19T07:41:43.158Z,6.80
2018-12-19T07:43:19.469Z,6.03
2018-12-19T07:44:54.916Z,5.50
2018-12-19T07:46:30.989Z,6.20
2018-12-19T07:48:06.010Z,5.83
2018-12-19T07:49:41.352Z,8.10
2018-12-19T07:51:16.421Z,5.20
2018-12-19T07:52:51.830Z,5.97
2018-12-19T07:54:27.291Z,5.40
2018-12-19T07:56:02.719Z,5.77
2018-12-19T07:57:37.605Z,6.10
2018-12-19T07:59:12.615Z,6.00
2018-12-19T08:00:47.531Z,6.27
2018-12-19T08:02:22.595Z,5.80
2018-12-19T08:03:57.674Z,7.67
2018-12-19T08:05:33.336Z,5.70
2018-12-19T08:07:09.351Z,5.43
2018-12-19T08:08:44.645Z,5.90
2018-12-19T08:10:20.544Z,5.87
2018-12-19T08:11:55.459Z,5.37
2018-12-19T08:13:31.563Z,4.57
2018-12-19T08:15:08.259Z,4.87
2018-12-19T08:16:43.370Z,5.53
2018-12-19T08:18:18.702Z,5.30
2018-12-19T08:19:53.761Z,5.47
2018-12-19T08:21:29.013Z,5.20
2018-12-19T08:23:03.940Z,5.47
2018-12-19T08:24:41.695Z,7.27
2018-12-19T08:26:16.728Z,5.40
2018-12-19T08:27:51.676Z,5.87
2018-12-19T08:29:26.573Z,5.20
2018-12-19T08:31:02.211Z,5.43
2018-12-19T08:32:37.110Z,4.57
2018-12-19T08:34:12.558Z,4.53
2018-12-19T08:35:49.045Z,4.67
2018-12-19T08:37:24.850Z,5.00
2018-12-19T08:38:59.797Z,4.73
2018-12-19T08:40:35.657Z,4.03
2018-12-19T08:42:11.530Z,4.17
2018-12-19T08:43:47.010Z,4.13
2018-12-19T08:45:22.922Z,4.17
2018-12-19T08:46:58.097Z,5.07
2018-12-19T08:48:33.338Z,3.77
2018-12-19T08:50:11.605Z,4.43
2018-12-19T08:51:46.614Z,3.97
2018-12-19T08:53:21.965Z,4.30
2018-12-19T08:54:57.519Z,4.97
2018-12-19T08:56:32.587Z,4.87
2018-12-19T08:58:07.506Z,4.60
2018-12-19T08:59:42.432Z,4.10
2018-12-19T09:01:17.708Z,5.10
2018-12-19T09:02:52.760Z,5.17
2018-12-19T09:04:27.691Z,4.40
2018-12-19T09:06:02.642Z,4.27
2018-12-19T09:07:37.544Z,4.40
2018-12-19T09:09:12.655Z,4.93
2018-12-19T09:10:47.627Z,5.77
2018-12-19T09:12:22.486Z,5.57
2018-12-19T09:13:57.604Z,6.00
2018-12-19T09:15:37.998Z,4.90
2018-12-19T09:17:13.843Z,5.67
2018-12-19T09:18:48.752Z,4.07
2018-12-19T09:20:24.036Z,3.93
2018-12-19T09:22:00.344Z,4.10
2018-12-19T09:23:35.406Z,5.13
2018-12-19T09:25:10.457Z,5.60
2018-12-19T09:26:45.615Z,4.90
2018-12-19T09:28:20.589Z,4.77
2018-12-19T09:29:55.474Z,5.00
2018-12-19T09:31:30.654Z,5.07
2018-12-19T09:33:05.878Z,4.67
2018-12-19T09:34:40.865Z,4.47
2018-12-19T09:36:15.872Z,4.27
2018-12-19T09:37:50.805Z,4.37
2018-12-19T09:39:25.747Z,5.53
2018-12-19T09:41:01.143Z,4.50
2018-12-19T09:42:36.110Z,3.83
2018-12-19T09:44:11.784Z,3.70
2018-12-19T09:45:46.764Z,5.57
2018-12-19T09:47:22.204Z,4.60
2018-12-19T09:48:58.239Z,4.80
2018-12-19T09:50:33.336Z,4.60
2018-12-19T09:52:08.376Z,4.17
2018-12-19T09:53:43.369Z,4.20
2018-12-19T09:55:18.508Z,4.40
2018-12-19T09:56:53.600Z,5.33
2018-12-19T09:58:28.827Z,5.37
2018-12-19T10:00:06.891Z,4.80
2018-12-19T10:01:42.057Z,4.60
2018-12-19T10:03:17.023Z,5.07
2018-12-19T10:04:58.985Z,5.37
2018-12-19T10:06:36.052Z,6.30
2018-12-19T10:08:11.049Z,5.67
2018-12-19T10:09:46.088Z,6.43
2018-12-19T10:11:22.144Z,5.53
2018-12-19T10:12:57.341Z,6.13
2018-12-19T10:14:32.479Z,4.47
2018-12-19T10:16:08.363Z,4.50
2018-12-19T10:17:43.224Z,4.30
2018-12-19T10:19:18.192Z,5.80
2018-12-19T10:20:53.294Z,5.53
2018-12-19T10:22:32.180Z,6.43
2018-12-19T10:24:07.039Z,5.40
2018-12-19T10:25:43.179Z,5.93
2018-12-19T10:27:21.803Z,6.83
2018-12-19T10:28:57.174Z,6.10
2018-12-19T10:30:34.343Z,5.10
2018-12-19T10:32:09.716Z,4.50
2018-12-19T10:33:44.825Z,5.67
2018-12-19T10:35:19.928Z,5.10
2018-12-19T10:36:54.926Z,4.60
2018-12-19T10:38:29.832Z,5.07
2018-12-19T10:40:07.061Z,6.30
2018-12-19T10:41:42.041Z,5.87
2018-12-19T10:43:16.937Z,6.87
2018-12-19T10:44:51.891Z,5.20
2018-12-19T10:46:26.944Z,5.03
2018-12-19T10:48:02.034Z,5.70
2018-12-19T10:49:36.958Z,5.30
2018-12-19T10:51:11.821Z,4.77
2018-12-19T10:52:46.796Z,4.33
2018-12-19T10:54:21.886Z,5.27
2018-12-19T10:55:56.841Z,5.00
2018-12-19T10:57:31.859Z,5.77
2018-12-19T10:59:06.799Z,6.10
2018-12-19T11:00:47.248Z,5.70
2018-12-19T11:02:22.457Z,5.80
2018-12-19T11:03:57.523Z,4.57
2018-12-19T11:05:32.443Z,5.30
2018-12-19T11:07:07.535Z,6.03
2018-12-19T11:08:42.444Z,5.63
2018-12-19T11:10:17.554Z,5.53
2018-12-19T11:11:52.814Z,5.67
2018-12-19T11:13:27.976Z,6.33
2018-12-19T11:15:02.952Z,5.83
2018-12-19T11:16:37.963Z,5.10
2018-12-19T11:18:13.157Z,6.10
2018-12-19T11:19:48.142Z,5.47
2018-12-19T11:21:23.087Z,4.43
2018-12-19T11:22:58.087Z,4.70
2018-12-19T11:24:33.018Z,4.30
2018-12-19T11:26:07.954Z,4.00
2018-12-19T11:27:42.970Z,3.50
2018-12-19T11:29:17.961Z,5.50
2018-12-19T11:30:52.923Z,6.90
2018-12-19T11:32:27.901Z,5.23
2018-12-19T11:34:02.823Z,5.10
2018-12-19T11:35:37.836Z,5.73
2018-12-19T11:37:12.832Z,5.20
2018-12-19T11:38:47.756Z,6.10
2018-12-19T11:40:22.715Z,5.70
2018-12-19T11:41:57.572Z,5.10
2018-12-19T11:43:32.656Z,5.53
2018-12-19T11:45:07.817Z,5.90
2018-12-19T11:46:42.718Z,6.43
2018-12-19T11:48:17.746Z,6.57
2018-12-19T11:49:52.746Z,7.97
2018-12-19T11:51:27.704Z,6.67
2018-12-19T11:53:02.733Z,6.90
2018-12-19T11:54:37.730Z,7.93
2018-12-19T11:56:12.664Z,7.13
2018-12-19T11:57:47.574Z,6.30
2018-12-19T11:59:22.545Z,7.03
2018-12-19T12:00:57.502Z,5.93
2018-12-19T12:02:32.411Z,6.23
2018-12-19T12:04:07.353Z,5.53
2018-12-19T12:05:44.216Z,5.40
2018-12-19T12:07:19.324Z,6.93
2018-12-19T12:08:54.236Z,5.83
2018-12-19T12:10:29.105Z,5.73
2018-12-19T12:12:04.209Z,6.30
2018-12-19T12:13:39.309Z,5.87
2018-12-19T12:15:14.200Z,7.57
2018-12-19T12:16:49.085Z,5.70
2018-12-19T12:18:24.007Z,6.07
2018-12-19T12:19:59.622Z,6.13
2018-12-19T12:21:34.486Z,6.20
2018-12-19T12:23:09.517Z,5.93
2018-12-19T12:24:44.398Z,5.40
2018-12-19T12:26:19.306Z,6.90
2018-12-19T12:27:54.198Z,5.87
2018-12-19T12:29:29.076Z,5.20
2018-12-19T12:31:03.960Z,5.83
2018-12-19T12:32:38.976Z,5.13
2018-12-19T12:34:13.934Z,5.00
2018-12-19T12:35:49.639Z,5.70
2018-12-19T12:37:24.605Z,5.23
2018-12-19T12:39:00.902Z,5.43
2018-12-19T12:40:37.862Z,5.33
2018-12-19T12:42:12.849Z,7.17
2018-12-19T12:43:47.855Z,5.80
2018-12-19T12:45:22.859Z,5.13
2018-12-19T12:46:57.751Z,5.93
2018-12-19T12:48:32.724Z,5.47
2018-12-19T12:50:07.907Z,5.77
2018-12-19T12:51:42.955Z,5.20
2018-12-19T12:53:17.875Z,5.20
2018-12-19T12:54:52.873Z,5.57
2018-12-19T12:56:27.797Z,5.10
2018-12-19T12:58:02.787Z,5.63
2018-12-19T12:59:37.674Z,5.47
2018-12-19T13:01:12.589Z,4.70
2018-12-19T13:02:47.592Z,5.27
2018-12-19T13:04:22.552Z,5.93
2018-12-19T13:05:57.758Z,5.57
2018-12-19T13:07:32.892Z,5.90
2018-12-19T13:09:08.777Z,6.50
2018-12-19T13:10:43.759Z,5.67
2018-12-19T13:12:18.981Z,6.10
2018-12-19T13:13:54.070Z,5.93
2018-12-19T13:15:34.418Z,5.80
2018-12-19T13:17:09.331Z,8.23
2018-12-19T13:18:44.257Z,5.60
2018-12-19T13:20:19.130Z,6.10
2018-12-19T13:21:54.123Z,5.90
2018-12-19T13:23:29.029Z,5.90
2018-12-19T13:25:04.245Z,6.90
2018-12-19T13:26:39.144Z,6.27
2018-12-19T13:28:14.109Z,6.33
2018-12-19T13:29:49.144Z,6.10
2018-12-19T13:31:24.007Z,6.50
2018-12-19T13:32:58.889Z,6.03
2018-12-19T13:34:34.865Z,6.57
2018-12-19T13:36:09.956Z,6.13
2018-12-19T13:37:44.944Z,6.37
2018-12-19T13:39:19.843Z,6.10
2018-12-19T13:40:54.704Z,6.73
2018-12-19T13:42:29.556Z,5.77
2018-12-19T13:44:04.725Z,5.90
2018-12-19T13:45:39.669Z,7.00
2018-12-19T13:47:14.562Z,5.70
2018-12-19T13:48:49.626Z,5.93
2018-12-19T13:50:25.005Z,6.17
2018-12-19T13:52:00.117Z,6.03
2018-12-19T13:53:35.098Z,6.87
2018-12-19T13:55:10.152Z,5.93
2018-12-19T13:56:45.040Z,6.33
2018-12-19T13:58:20.283Z,6.27
2018-12-19T13:59:55.321Z,6.63
2018-12-19T14:01:30.285Z,6.73
2018-12-19T14:03:05.340Z,6.17
2018-12-19T14:04:40.436Z,6.23
2018-12-19T14:06:15.296Z,6.07
2018-12-19T14:07:50.188Z,6.40
2018-12-19T14:09:25.106Z,5.97
2018-12-19T14:10:59.991Z,6.90
2018-12-19T14:12:35.101Z,6.03
2018-12-19T14:14:10.029Z,6.33
2018-12-19T14:15:44.916Z,6.20
2018-12-19T14:17:19.775Z,6.23
2018-12-19T14:18:54.817Z,7.23
2018-12-19T14:20:29.735Z,6.10
2018-12-19T14:22:04.633Z,5.97
2018-12-19T14:23:39.514Z,5.30
2018-12-19T14:25:14.445Z,6.43
2018-12-19T14:26:49.418Z,6.60
2018-12-19T14:28:24.458Z,6.20
2018-12-19T14:29:59.394Z,6.20
2018-12-19T14:31:34.228Z,6.17
2018-12-19T14:33:09.132Z,6.40
2018-12-19T14:34:44.209Z,6.47
2018-12-19T14:36:19.087Z,5.90
2018-12-19T14:37:53.984Z,5.87
2018-12-19T14:39:28.879Z,6.30
2018-12-19T14:41:03.796Z,7.17
2018-12-19T14:42:38.805Z,6.53
2018-12-19T14:44:13.859Z,7.40
2018-12-19T14:45:49.124Z,7.47
2018-12-19T14:47:24.247Z,7.53
2018-12-19T14:48:59.192Z,5.93
2018-12-19T14:50:34.242Z,6.30
2018-12-19T14:52:09.114Z,7.13
2018-12-19T14:53:44.099Z,6.10
2018-12-19T14:55:19.001Z,6.43
2018-12-19T14:56:53.950Z,5.73
2018-12-19T14:58:28.885Z,6.70
2018-12-19T15:00:04.701Z,5.60
2018-12-19T15:01:40.784Z,5.50
2018-12-19T15:03:15.883Z,6.00
2018-12-19T15:04:50.841Z,5.70
2018-12-19T15:06:25.856Z,5.30
2018-12-19T15:08:00.885Z,6.33
2018-12-19T15:09:35.914Z,5.53
2018-12-19T15:11:10.834Z,5.50
2018-12-19T15:12:45.866Z,6.00
2018-12-19T15:14:20.692Z,5.90
2018-12-19T15:16:01.857Z,6.40
2018-12-19T15:17:36.765Z,5.70
2018-12-19T15:19:11.853Z,5.47
2018-12-19T15:20:46.879Z,6.60
2018-12-19T15:22:22.898Z,7.23
2018-12-19T15:23:58.028Z,6.70
2018-12-19T15:25:33.028Z,7.53
2018-12-19T15:27:08.025Z,7.00
2018-12-19T15:28:42.919Z,6.60
2018-12-19T15:30:17.950Z,6.70
2018-12-19T15:31:52.862Z,6.27
2018-12-19T15:33:29.972Z,6.97
2018-12-19T15:35:05.144Z,6.83
2018-12-19T15:36:40.254Z,6.60
2018-12-19T15:38:15.125Z,6.07
2018-12-19T15:39:50.106Z,6.03
2018-12-19T15:41:25.165Z,6.33
2018-12-19T15:43:00.095Z,6.73
2018-12-19T15:44:34.984Z,6.77
2018-12-19T15:46:09.876Z,6.20
2018-12-19T15:47:44.766Z,7.77
2018-12-19T15:49:19.616Z,7.70
2018-12-19T15:50:54.588Z,7.53
2018-12-19T15:52:29.599Z,6.37
2018-12-19T15:54:04.597Z,7.87
2018-12-19T15:55:39.609Z,7.87
2018-12-19T15:57:14.749Z,7.57
2018-12-19T15:58:49.950Z,6.93
2018-12-19T16:00:24.934Z,7.30
2018-12-19T16:01:59.854Z,6.57
2018-12-19T16:03:34.838Z,6.90
2018-12-19T16:05:09.868Z,7.40
2018-12-19T16:06:44.929Z,6.43
2018-12-19T16:08:19.849Z,6.87
2018-12-19T16:09:54.938Z,7.07
2018-12-19T16:11:29.866Z,6.83
2018-12-19T16:13:04.803Z,6.30
2018-12-19T16:14:40.210Z,6.37
2018-12-19T16:16:15.880Z,6.67
2018-12-19T16:17:50.708Z,6.57
2018-12-19T16:19:25.872Z,6.40
2018-12-19T16:21:00.961Z,6.33
2018-12-19T16:22:35.966Z,6.07
2018-12-19T16:24:10.835Z,7.57
2018-12-19T16:25:45.831Z,7.40
2018-12-19T16:27:21.277Z,7.37
2018-12-19T16:28:56.178Z,7.37
2018-12-19T16:30:31.418Z,7.03
2018-12-19T16:32:06.362Z,7.70
2018-12-19T16:33:41.325Z,7.63
2018-12-19T16:35:16.494Z,6.97
2018-12-19T16:36:51.728Z,7.13
2018-12-19T16:38:26.707Z,6.43
2018-12-19T16:40:01.655Z,6.73
2018-12-19T16:41:36.730Z,6.73
2018-12-19T16:43:11.654Z,7.00
2018-12-19T16:44:46.661Z,7.50
2018-12-19T16:46:21.960Z,7.23
2018-12-19T16:47:56.892Z,7.00
2018-12-19T16:49:31.812Z,7.30
2018-12-19T16:51:06.917Z,6.87
2018-12-19T16:52:41.793Z,7.77
2018-12-19T16:54:16.671Z,7.00
2018-12-19T16:55:51.626Z,6.53
2018-12-19T16:57:26.550Z,7.67
2018-12-19T16:59:01.623Z,8.00
2018-12-19T17:00:36.680Z,8.53
2018-12-19T17:02:11.565Z,7.93
2018-12-19T17:03:46.537Z,7.80
2018-12-19T17:05:21.705Z,8.27
2018-12-19T17:06:57.402Z,8.07
2018-12-19T17:08:32.596Z,7.63
2018-12-19T17:10:08.524Z,7.37
2018-12-19T17:11:50.243Z,6.83
2018-12-19T17:13:25.170Z,6.57
2018-12-19T17:15:00.606Z,5.83
2018-12-19T17:16:35.704Z,6.73
2018-12-19T17:18:10.770Z,6.23
2018-12-19T17:19:45.987Z,5.70
2018-12-19T17:21:20.945Z,5.77
2018-12-19T17:22:55.941Z,7.40
2018-12-19T17:24:41.078Z,6.43
2018-12-19T17:26:16.123Z,5.57
2018-12-19T17:27:52.549Z,6.57
2018-12-19T17:29:27.672Z,6.37
2018-12-19T17:31:02.726Z,6.90
2018-12-19T17:32:38.054Z,6.70
2018-12-19T17:34:13.077Z,6.47
2018-12-19T17:35:49.423Z,7.43
2018-12-19T17:37:24.459Z,6.57
2018-12-19T17:38:59.391Z,7.03
2018-12-19T17:40:34.286Z,7.07
2018-12-19T17:42:09.318Z,6.40
2018-12-19T17:43:44.431Z,6.70
2018-12-19T17:45:19.323Z,6.37
2018-12-19T17:46:54.655Z,6.70
2018-12-19T17:48:29.589Z,6.70
2018-12-19T17:50:05.626Z,7.37
2018-12-19T17:51:40.701Z,7.10
2018-12-19T17:53:15.752Z,8.00
2018-12-19T17:54:50.772Z,6.27
2018-12-19T17:56:26.031Z,6.97
2018-12-19T17:58:01.551Z,6.50
2018-12-19T17:59:36.717Z,6.50
2018-12-19T18:01:11.912Z,6.90
2018-12-19T18:02:47.092Z,6.73
2018-12-19T18:04:23.284Z,7.43
2018-12-19T18:05:58.616Z,7.73
2018-12-19T18:07:33.917Z,9.63
2018-12-19T18:09:11.048Z,7.17
2018-12-19T18:10:46.020Z,8.07
2018-12-19T18:12:21.069Z,7.50
2018-12-19T18:13:56.368Z,6.73
2018-12-19T18:15:31.399Z,7.43
2018-12-19T18:17:07.701Z,7.47
2018-12-19T18:18:42.807Z,7.63
2018-12-19T18:20:18.144Z,6.97
2018-12-19T18:21:53.561Z,10.30
2018-12-19T18:23:29.166Z,6.90
2018-12-19T18:25:04.965Z,6.93
2018-12-19T18:26:42.525Z,6.80
2018-12-19T18:28:18.862Z,6.43
2018-12-19T18:29:55.010Z,7.17
2018-12-19T18:31:30.723Z,7.47
2018-12-19T18:33:06.892Z,7.17
2018-12-19T18:34:42.856Z,7.67
2018-12-19T18:36:22.123Z,7.67
2018-12-19T18:37:57.507Z,7.23
2018-12-19T18:39:33.060Z,6.60
2018-12-19T18:41:08.772Z,7.57
2018-12-19T18:42:43.876Z,6.67
2018-12-19T18:44:19.060Z,6.13
2018-12-19T18:45:54.025Z,5.90
2018-12-19T18:47:29.024Z,6.07
2018-12-19T18:49:04.367Z,6.57
2018-12-19T18:50:39.857Z,7.47
2018-12-19T18:52:15.528Z,7.07
2018-12-19T18:53:50.978Z,7.63
2018-12-19T18:55:26.590Z,7.60
2018-12-19T18:57:02.390Z,8.10
2018-12-19T18:58:37.935Z,7.40
2018-12-19T19:00:16.921Z,8.30
2018-12-19T19:01:52.068Z,7.63
2018-12-19T19:03:27.236Z,8.03
2018-12-19T19:05:02.384Z,11.47
2018-12-19T19:06:37.479Z,9.47
2018-12-19T19:08:12.661Z,8.13
2018-12-19T19:09:49.025Z,8.00
2018-12-19T19:11:24.274Z,7.83
2018-12-19T19:12:59.350Z,8.23
2018-12-19T19:14:34.355Z,7.43
2018-12-19T19:16:09.390Z,8.10
2018-12-19T19:17:44.364Z,8.10
2018-12-19T19:19:19.650Z,8.83
2018-12-19T19:20:54.830Z,8.90
2018-12-19T19:22:30.060Z,8.17
2018-12-19T19:24:05.697Z,7.50
2018-12-19T19:25:41.803Z,7.00
2018-12-19T19:27:17.095Z,7.23
2018-12-19T19:28:52.255Z,7.03
2018-12-19T19:30:27.356Z,9.00
2018-12-19T19:32:02.687Z,8.00
2018-12-19T19:33:39.431Z,8.40
2018-12-19T19:35:14.631Z,6.93
2018-12-19T19:36:49.923Z,6.60
2018-12-19T19:38:24.970Z,7.97
2018-12-19T19:40:00.316Z,8.23
2018-12-19T19:41:35.401Z,7.43
2018-12-19T19:43:10.536Z,7.20
2018-12-19T19:44:45.537Z,7.57
2018-12-19T19:46:20.688Z,7.80
2018-12-19T19:47:55.751Z,7.83
2018-12-19T19:49:30.948Z,7.77
2018-12-19T19:51:06.126Z,7.47
2018-12-19T19:52:41.132Z,7.80
2018-12-19T19:54:16.254Z,7.33
2018-12-19T19:55:51.253Z,7.40
2018-12-19T19:57:26.633Z,7.20
2018-12-19T19:59:02.014Z,6.93
2018-12-19T20:00:37.134Z,6.70
2018-12-19T20:02:12.241Z,7.40
2018-12-19T20:03:47.244Z,7.00
2018-12-19T20:05:22.236Z,7.60
2018-12-19T20:07:01.010Z,6.90
2018-12-19T20:08:34.548Z,8.47
2018-12-19T20:10:09.661Z,7.53
2018-12-19T20:11:44.621Z,8.00
2018-12-19T20:13:19.584Z,7.70
2018-12-19T20:14:54.658Z,7.73
2018-12-19T20:16:29.663Z,7.27
2018-12-19T20:18:05.368Z,7.50
2018-12-19T20:19:40.405Z,7.47
2018-12-19T20:21:15.426Z,7.50
2018-12-19T20:22:50.441Z,8.27
2018-12-19T20:24:25.455Z,7.63
2018-12-19T20:26:00.414Z,7.57
2018-12-19T20:27:35.514Z,7.37
2018-12-19T20:29:10.577Z,7.77
2018-12-19T20:30:45.694Z,7.53
2018-12-19T20:32:20.702Z,7.30
2018-12-19T20:33:55.833Z,7.53
2018-12-19T20:35:31.026Z,7.13
2018-12-19T20:37:06.267Z,7.67
2018-12-19T20:38:41.413Z,7.20
2018-12-19T20:40:16.410Z,7.37
2018-12-19T20:41:51.613Z,8.00
2018-12-19T20:43:26.584Z,7.77
2018-12-19T20:45:01.586Z,8.10
2018-12-19T20:46:44.300Z,8.17
2018-12-19T20:48:19.340Z,8.10
2018-12-19T20:49:54.470Z,7.90
2018-12-19T20:51:29.424Z,8.27
2018-12-19T20:53:04.772Z,8.83
2018-12-19T20:54:39.798Z,8.87
2018-12-19T20:56:14.746Z,8.90
2018-12-19T20:57:49.856Z,8.77
2018-12-19T20:59:24.996Z,8.80